createdAt,value
2019-04-01T00:02:04.315Z,1.30
2019-04-01T00:04:30.900Z,1.50
2019-04-01T00:06:57.701Z,1.17
2019-04-01T00:09:24.647Z,1.50
2019-04-01T00:11:51.354Z,1.63
2019-04-01T00:14:18.326Z,1.57
2019-04-01T00:16:44.875Z,1.50
2019-04-01T00:19:11.742Z,1.37
2019-04-01T00:21:38.746Z,1.10
2019-04-01T00:24:06.573Z,1.03
2019-04-01T00:26:33.983Z,1.07
2019-04-01T00:29:00.541Z,1.47
2019-04-01T00:31:27.475Z,1.17
2019-04-01T00:33:54.424Z,1.40
2019-04-01T00:36:21.146Z,1.30
2019-04-01T00:38:47.693Z,1.20
2019-04-01T00:41:14.314Z,1.20
2019-04-01T00:44:00.470Z,0.80
2019-04-01T00:46:27.186Z,1.53
2019-04-01T00:48:54.884Z,0.87
2019-04-01T00:51:21.445Z,1.40
2019-04-01T00:53:48.089Z,1.27
2019-04-01T00:56:14.574Z,1.13
2019-04-01T00:58:41.290Z,1.30
2019-04-01T01:01:09.004Z,1.10
2019-04-01T01:03:35.833Z,1.60
2019-04-01T01:06:02.405Z,1.47
2019-04-01T01:08:28.974Z,1.30
2019-04-01T01:10:55.637Z,1.27
2019-04-01T01:13:22.202Z,1.00
2019-04-01T01:15:49.103Z,1.00
2019-04-01T01:20:54.568Z,1.33
2019-04-01T01:23:21.235Z,1.40
2019-04-01T01:25:47.849Z,1.27
2019-04-01T01:28:14.417Z,1.13
2019-04-01T01:30:41.009Z,1.30
2019-04-01T01:33:07.665Z,0.90
2019-04-01T01:35:34.547Z,1.20
2019-04-01T01:38:02.280Z,1.13
2019-04-01T01:40:28.817Z,1.50
2019-04-01T01:42:55.381Z,1.27
2019-04-01T01:45:22.042Z,1.43
2019-04-01T01:47:48.900Z,1.70
2019-04-01T01:50:15.593Z,1.40
2019-04-01T01:52:42.535Z,1.40
2019-04-01T01:55:09.579Z,1.00
2019-04-01T01:57:36.133Z,1.00
2019-04-01T02:00:02.837Z,1.30
2019-04-01T02:02:29.793Z,1.40
2019-04-01T02:04:56.820Z,1.33
2019-04-01T02:07:23.920Z,1.30
2019-04-01T02:09:50.511Z,1.17
2019-04-01T02:12:17.581Z,1.13
2019-04-01T02:14:44.349Z,1.40
2019-04-01T02:17:10.963Z,1.20
2019-04-01T02:19:37.529Z,0.83
2019-04-01T02:22:04.167Z,1.23
2019-04-01T02:24:30.722Z,1.27
2019-04-01T02:26:57.359Z,1.40
2019-04-01T02:29:24.362Z,1.07
2019-04-01T02:31:52.731Z,1.50
2019-04-01T02:34:19.309Z,1.27
2019-04-01T02:36:45.923Z,1.10
2019-04-01T02:39:12.665Z,1.43
2019-04-01T02:41:39.369Z,1.17
2019-04-01T02:44:06.078Z,1.10
2019-04-01T02:46:32.686Z,1.03
2019-04-01T02:48:59.410Z,1.30
2019-04-01T02:51:27.919Z,1.60
2019-04-01T02:53:54.518Z,0.83
2019-04-01T02:56:21.257Z,1.30
2019-04-01T02:58:48.177Z,1.50
2019-04-01T03:01:14.848Z,0.97
2019-04-01T03:03:41.412Z,1.23
2019-04-01T03:06:08.168Z,1.50
2019-04-01T03:08:34.792Z,1.10
2019-04-01T03:11:01.753Z,1.40
2019-04-01T03:13:28.330Z,0.77
2019-04-01T03:15:55.184Z,1.00
2019-04-01T03:18:21.962Z,1.03
2019-04-01T03:20:48.916Z,1.40
2019-04-01T03:23:15.473Z,1.27
2019-04-01T03:25:42.579Z,1.07
2019-04-01T03:28:09.168Z,1.30
2019-04-01T03:30:36.069Z,0.70
2019-04-01T03:33:02.871Z,1.50
2019-04-01T03:35:29.416Z,1.13
2019-04-01T03:37:56.011Z,1.33
2019-04-01T03:40:24.603Z,0.97
2019-04-01T03:42:51.205Z,1.10
2019-04-01T03:45:19.185Z,1.10
2019-04-01T03:47:46.156Z,1.50
2019-04-01T03:50:12.729Z,1.23
2019-04-01T03:52:39.312Z,1.53
2019-04-01T03:55:05.902Z,1.10
2019-04-01T03:57:32.892Z,1.47
2019-04-01T03:59:59.457Z,1.40
2019-04-01T04:02:26.055Z,0.90
2019-04-01T04:04:53.224Z,1.00
2019-04-01T04:07:19.900Z,1.03
2019-04-01T04:09:46.728Z,1.23
2019-04-01T04:12:13.302Z,1.20
2019-04-01T04:14:39.973Z,1.57
2019-04-01T04:17:06.442Z,0.90
2019-04-01T04:19:33.001Z,1.30
2019-04-01T04:21:59.984Z,1.17
2019-04-01T04:24:26.511Z,1.20
2019-04-01T04:26:53.198Z,1.33
2019-04-01T04:29:20.226Z,1.37
2019-04-01T04:31:47.197Z,1.40
2019-04-01T04:34:13.780Z,1.40
2019-04-01T04:36:40.385Z,1.40
2019-04-01T04:39:06.934Z,1.50
2019-04-01T04:41:33.500Z,1.40
2019-04-01T04:44:00.281Z,1.53
2019-04-01T04:46:27.399Z,1.30
2019-04-01T04:48:54.445Z,1.27
2019-04-01T04:51:21.070Z,1.10
2019-04-01T04:53:47.760Z,1.20
2019-04-01T04:56:14.545Z,1.50
2019-04-01T04:58:41.176Z,1.13
2019-04-01T05:01:07.896Z,1.30
2019-04-01T05:03:34.724Z,1.30
2019-04-01T05:06:01.315Z,1.13
2019-04-01T05:08:27.930Z,1.03
2019-04-01T05:10:56.276Z,0.80
2019-04-01T05:13:23.018Z,1.03
2019-04-01T05:15:49.600Z,1.40
2019-04-01T05:18:17.684Z,1.20
2019-04-01T05:20:46.262Z,1.30
2019-04-01T05:23:14.796Z,1.27
2019-04-01T05:25:43.444Z,1.20
2019-04-01T05:28:10.207Z,1.23
2019-04-01T05:30:38.196Z,1.33
2019-04-01T05:33:04.782Z,1.20
2019-04-01T05:35:31.656Z,1.00
2019-04-01T05:37:58.417Z,1.30
2019-04-01T05:40:25.238Z,1.10
2019-04-01T05:42:51.914Z,1.40
2019-04-01T05:45:18.942Z,0.97
2019-04-01T05:47:48.546Z,0.97
2019-04-01T05:50:15.261Z,1.30
2019-04-01T05:52:41.969Z,1.43
2019-04-01T05:55:09.830Z,1.30
2019-04-01T05:57:36.447Z,1.40
2019-04-01T06:00:05.585Z,1.40
2019-04-01T06:02:32.194Z,1.30
2019-04-01T06:04:58.933Z,1.20
2019-04-01T06:07:25.798Z,1.10
2019-04-01T06:09:52.478Z,1.80
2019-04-01T06:12:19.109Z,1.47
2019-04-01T06:14:45.869Z,1.20
2019-04-01T06:17:12.607Z,1.53
2019-04-01T06:19:39.321Z,1.13
2019-04-01T06:22:06.111Z,1.30
2019-04-01T06:24:33.069Z,1.40
2019-04-01T06:27:00.849Z,1.50
2019-04-01T06:29:27.521Z,1.23
2019-04-01T06:31:54.223Z,0.90
2019-04-01T06:34:21.135Z,1.07
2019-04-01T06:36:47.814Z,1.20
2019-04-01T06:39:14.497Z,1.00
2019-04-01T06:41:41.103Z,1.00
2019-04-01T06:44:07.795Z,0.97
2019-04-01T06:46:34.380Z,1.10
2019-04-01T06:49:01.128Z,1.20
2019-04-01T06:51:27.866Z,1.23
2019-04-01T06:53:54.568Z,1.10
2019-04-01T06:56:21.968Z,1.13
2019-04-01T06:58:48.742Z,1.30
2019-04-01T07:01:15.597Z,1.30
2019-04-01T07:03:42.183Z,1.60
2019-04-01T07:06:09.258Z,1.53
2019-04-01T07:08:36.042Z,1.37
2019-04-01T07:11:03.090Z,1.10
2019-04-01T07:13:30.614Z,1.30
2019-04-01T07:15:57.542Z,1.20
2019-04-01T07:18:24.228Z,1.20
2019-04-01T07:20:51.262Z,1.50
2019-04-01T07:23:18.247Z,1.10
2019-04-01T07:25:45.019Z,1.70
2019-04-01T07:28:11.944Z,1.37
2019-04-01T07:30:41.632Z,1.00
2019-04-01T07:33:07.058Z,1.43
2019-04-01T07:35:33.759Z,1.33
2019-04-01T07:38:01.025Z,1.70
2019-04-01T07:40:29.850Z,1.30
2019-04-01T07:42:58.252Z,1.53
2019-04-01T07:45:25.272Z,1.17
2019-04-01T07:47:51.897Z,1.60
2019-04-01T07:50:18.775Z,1.30
2019-04-01T07:52:45.336Z,1.37
2019-04-01T07:55:12.220Z,1.13
2019-04-01T07:57:38.836Z,1.47
2019-04-01T08:00:05.535Z,1.33
2019-04-01T08:02:34.055Z,2.10
2019-04-01T08:05:01.110Z,1.90
2019-04-01T08:07:28.002Z,1.50
2019-04-01T08:09:54.791Z,1.60
2019-04-01T08:12:21.758Z,1.30
2019-04-01T08:14:48.483Z,1.70
2019-04-01T08:17:15.008Z,1.43
2019-04-01T08:19:41.759Z,1.83
2019-04-01T08:22:08.340Z,1.33
2019-04-01T08:24:35.037Z,1.57
2019-04-01T08:27:01.788Z,1.50
2019-04-01T08:29:30.401Z,1.80
2019-04-01T08:31:57.222Z,1.80
2019-04-01T08:34:23.845Z,1.90
2019-04-01T08:39:35.242Z,1.30
2019-04-01T08:42:01.814Z,1.57
2019-04-01T08:44:28.385Z,1.60
2019-04-01T08:46:55.036Z,1.47
2019-04-01T08:49:21.819Z,1.70
2019-04-01T08:51:51.352Z,2.03
2019-04-01T08:54:17.946Z,1.73
2019-04-01T08:56:44.895Z,1.63
2019-04-01T08:59:11.574Z,1.67
2019-04-01T09:01:38.158Z,1.87
2019-04-01T09:04:05.897Z,1.93
2019-04-01T09:06:32.579Z,1.73
2019-04-01T09:08:59.250Z,2.00
2019-04-01T09:11:25.841Z,1.83
2019-04-01T09:13:54.393Z,2.10
2019-04-01T09:16:20.981Z,2.07
2019-04-01T09:18:49.476Z,2.10
2019-04-01T09:21:16.121Z,1.60
2019-04-01T09:26:21.826Z,2.30
2019-04-01T09:28:48.422Z,2.10
2019-04-01T09:31:15.114Z,2.00
2019-04-01T09:33:41.691Z,1.70
2019-04-01T09:36:08.305Z,1.83
2019-04-01T09:38:34.855Z,2.23
2019-04-01T09:41:01.684Z,2.10
2019-04-01T09:43:28.357Z,2.37
2019-04-01T09:45:54.980Z,2.00
2019-04-01T09:48:23.682Z,2.17
2019-04-01T09:50:50.431Z,2.07
2019-04-01T09:53:17.191Z,2.57
2019-04-01T09:55:44.523Z,2.57
2019-04-01T09:58:11.114Z,1.83
2019-04-01T10:00:37.727Z,2.43
2019-04-01T10:03:04.253Z,2.90
2019-04-01T10:05:30.864Z,2.70
2019-04-01T10:07:57.503Z,2.73
2019-04-01T10:10:32.281Z,2.60
2019-04-01T10:13:01.788Z,3.20
2019-04-01T10:15:29.492Z,2.50
2019-04-01T10:17:56.131Z,2.37
2019-04-01T10:20:22.717Z,1.93
2019-04-01T10:22:49.388Z,2.97
2019-04-01T10:25:15.962Z,2.63
2019-04-01T10:27:42.534Z,2.87
2019-04-01T10:30:09.118Z,3.47
2019-04-01T10:32:35.750Z,2.57
2019-04-01T10:35:02.500Z,2.67
2019-04-01T10:37:29.242Z,3.47
2019-04-01T10:39:55.929Z,2.83
2019-04-01T10:42:22.574Z,2.77
2019-04-01T10:44:49.196Z,3.30
2019-04-01T10:47:15.910Z,3.03
2019-04-01T10:49:42.536Z,2.73
2019-04-01T10:52:09.439Z,3.37
2019-04-01T10:54:36.268Z,3.53
2019-04-01T10:57:04.525Z,3.70
2019-04-01T10:59:31.283Z,3.50
2019-04-01T11:01:58.239Z,4.20
2019-04-01T11:04:24.925Z,3.70
2019-04-01T11:06:51.667Z,3.77
2019-04-01T11:09:18.450Z,3.60
2019-04-01T11:11:45.034Z,3.83
2019-04-01T11:14:11.627Z,3.50
2019-04-01T11:16:38.208Z,3.30
2019-04-01T11:19:04.972Z,3.43
2019-04-01T11:21:31.792Z,3.40
2019-04-01T11:24:00.053Z,3.87
2019-04-01T11:26:26.878Z,3.50
2019-04-01T11:28:53.955Z,4.13
2019-04-01T11:31:20.748Z,3.77
2019-04-01T11:33:47.288Z,4.27
2019-04-01T11:36:14.037Z,4.10
2019-04-01T11:38:41.537Z,3.63
2019-04-01T11:41:08.124Z,4.23
2019-04-01T11:43:35.701Z,4.17
2019-04-01T11:46:02.806Z,4.33
2019-04-01T11:48:29.716Z,4.00
2019-04-01T11:50:56.297Z,4.00
2019-04-01T11:53:22.865Z,4.47
2019-04-01T11:55:49.485Z,4.10
2019-04-01T11:58:16.145Z,4.03
2019-04-01T12:00:42.899Z,4.40
2019-04-01T12:03:09.567Z,4.00
2019-04-01T12:05:36.565Z,4.57
2019-04-01T12:08:03.652Z,4.33
2019-04-01T12:10:30.317Z,4.50
2019-04-01T12:12:57.667Z,4.53
2019-04-01T12:15:24.734Z,4.57
2019-04-01T12:17:51.542Z,4.73
2019-04-01T12:20:18.150Z,4.90
2019-04-01T12:22:45.948Z,4.70
2019-04-01T12:25:12.858Z,5.07
2019-04-01T12:27:39.588Z,5.23
2019-04-01T12:30:06.615Z,4.60
2019-04-01T12:32:33.309Z,4.53
2019-04-01T12:34:59.902Z,4.87
2019-04-01T12:37:30.230Z,5.27
2019-04-01T12:39:57.130Z,4.53
2019-04-01T12:42:24.289Z,4.57
2019-04-01T12:44:53.060Z,4.47
2019-04-01T12:47:19.888Z,5.30
2019-04-01T12:49:46.611Z,5.20
2019-04-01T12:52:15.254Z,5.30
2019-04-01T12:54:43.869Z,5.03
2019-04-01T12:57:10.936Z,4.80
2019-04-01T12:59:37.440Z,5.57
2019-04-01T13:02:04.033Z,5.57
2019-04-01T13:04:31.794Z,4.67
2019-04-01T13:06:58.645Z,5.47
2019-04-01T13:09:26.294Z,5.37
2019-04-01T13:11:52.851Z,5.00
2019-04-01T13:14:19.514Z,4.37
2019-04-01T13:16:46.097Z,5.93
2019-04-01T13:19:12.920Z,5.97
2019-04-01T13:21:40.711Z,5.00
2019-04-01T13:24:07.275Z,5.57
2019-04-01T13:26:34.034Z,5.93
2019-04-01T13:29:00.728Z,6.13
2019-04-01T13:31:27.293Z,5.17
2019-04-01T13:33:54.033Z,4.93
2019-04-01T13:36:21.217Z,5.23
2019-04-01T13:38:48.156Z,5.60
2019-04-01T13:41:16.230Z,5.63
2019-04-01T13:43:43.337Z,5.73
2019-04-01T13:46:09.923Z,5.00
2019-04-01T13:48:36.622Z,5.13
2019-04-01T13:51:03.356Z,5.90
2019-04-01T13:53:29.926Z,5.80
2019-04-01T13:55:58.080Z,5.90
2019-04-01T13:58:24.855Z,5.70
2019-04-01T14:00:51.922Z,6.63
2019-04-01T14:03:18.923Z,6.17
2019-04-01T14:05:45.552Z,5.80
2019-04-01T14:08:12.197Z,6.07
2019-04-01T14:10:40.680Z,5.43
2019-04-01T14:13:07.502Z,5.80
2019-04-01T14:15:34.091Z,6.30
2019-04-01T14:18:02.452Z,6.23
2019-04-01T14:20:29.168Z,5.87
2019-04-01T14:22:55.848Z,6.57
2019-04-01T14:25:22.479Z,6.07
2019-04-01T14:27:49.149Z,6.40
2019-04-01T14:30:23.857Z,6.50
2019-04-01T14:32:50.669Z,6.27
2019-04-01T14:35:17.271Z,6.60
2019-04-01T14:37:44.617Z,5.83
2019-04-01T14:40:11.579Z,6.23
2019-04-01T14:42:39.608Z,6.10
2019-04-01T14:45:06.623Z,6.10
2019-04-01T14:47:55.898Z,6.47
2019-04-01T14:50:09.165Z,5.67
2019-04-01T14:52:52.695Z,5.63
2019-04-01T14:55:19.268Z,6.00
2019-04-01T14:57:47.253Z,6.60
2019-04-01T15:00:15.152Z,6.60
2019-04-01T15:02:41.921Z,6.80
2019-04-01T15:05:08.726Z,6.37
2019-04-01T15:07:35.473Z,6.40
2019-04-01T15:10:02.730Z,6.47
2019-04-01T15:12:29.372Z,6.37
2019-04-01T15:14:59.985Z,6.13
2019-04-01T15:17:26.636Z,6.37
2019-04-01T15:19:53.622Z,5.90
2019-04-01T15:22:20.249Z,5.83
2019-04-01T15:24:47.016Z,6.77
2019-04-01T15:27:13.758Z,6.67
2019-04-01T15:29:40.754Z,7.13
2019-04-01T15:32:07.396Z,6.20
2019-04-01T15:34:34.007Z,7.13
2019-04-01T15:37:00.715Z,6.67
2019-04-01T15:39:27.680Z,6.77
2019-04-01T15:41:54.354Z,6.60
2019-04-01T15:44:20.861Z,7.63
2019-04-01T15:46:47.555Z,6.67
2019-04-01T15:49:14.506Z,6.80
2019-04-01T15:51:42.161Z,6.37
2019-04-01T15:54:08.892Z,7.07
2019-04-01T15:56:35.932Z,6.60
2019-04-01T15:59:02.509Z,6.37
2019-04-01T16:01:30.110Z,7.07
2019-04-01T16:03:58.145Z,6.73
2019-04-01T16:06:24.781Z,7.20
2019-04-01T16:08:51.388Z,7.00
2019-04-01T16:11:18.182Z,7.13
2019-04-01T16:13:45.708Z,6.40
2019-04-01T16:16:14.405Z,7.47
2019-04-01T16:18:40.743Z,7.27
2019-04-01T16:21:07.305Z,6.07
2019-04-01T16:23:33.995Z,6.70
2019-04-01T16:26:05.162Z,6.53
2019-04-01T16:28:33.944Z,7.17
2019-04-01T16:33:39.717Z,6.63
2019-04-01T16:36:06.406Z,7.97
2019-04-01T16:38:32.995Z,7.27
2019-04-01T16:41:23.351Z,7.00
2019-04-01T16:43:56.773Z,6.53
2019-04-01T16:46:23.359Z,6.30
2019-04-01T16:48:50.165Z,6.07
2019-04-01T16:51:29.018Z,6.67
2019-04-01T16:53:56.466Z,6.40
2019-04-01T16:56:30.035Z,6.60
2019-04-01T16:58:56.631Z,6.80
2019-04-01T17:01:23.856Z,6.43
2019-04-01T17:03:50.518Z,6.40
2019-04-01T17:06:18.284Z,6.83
2019-04-01T17:08:44.863Z,7.00
2019-04-01T17:11:15.767Z,6.67
2019-04-01T17:16:47.792Z,7.30
2019-04-01T17:19:14.447Z,6.63
2019-04-01T17:21:41.061Z,6.57
2019-04-01T17:24:11.069Z,6.87
2019-04-01T17:26:37.961Z,6.30
2019-04-01T17:29:06.214Z,6.50
2019-04-01T17:31:33.135Z,7.00
2019-04-01T17:34:00.197Z,7.43
2019-04-01T17:36:26.964Z,6.60
2019-04-01T17:38:53.584Z,6.90
2019-04-01T17:41:20.277Z,6.60
2019-04-01T17:43:47.092Z,6.80
2019-04-01T17:46:13.710Z,6.70
2019-04-01T17:48:40.471Z,6.23
2019-04-01T17:51:07.084Z,5.40
2019-04-01T17:53:33.794Z,5.70
2019-04-01T17:56:00.565Z,6.53
2019-04-01T17:58:27.270Z,6.63
2019-04-01T18:00:58.425Z,6.50
2019-04-01T18:03:25.125Z,6.33
2019-04-01T18:05:51.697Z,6.30
2019-04-01T18:08:18.300Z,6.27
2019-04-01T18:10:48.519Z,7.07
2019-04-01T18:13:13.628Z,6.93
2019-04-01T18:15:40.377Z,6.73
2019-04-01T18:18:07.067Z,7.00
2019-04-01T18:20:34.458Z,6.70
2019-04-01T18:23:01.551Z,6.70
2019-04-01T18:25:28.160Z,6.53
2019-04-01T18:27:54.813Z,6.57
2019-04-01T18:30:21.662Z,7.03
2019-04-01T18:32:52.102Z,5.83
2019-04-01T18:35:16.762Z,5.93
2019-04-01T18:37:43.455Z,6.40
2019-04-01T18:40:10.425Z,6.53
2019-04-01T18:42:37.019Z,5.90
2019-04-01T18:45:03.637Z,6.23
2019-04-01T18:47:30.545Z,6.47
2019-04-01T18:49:57.186Z,7.43
2019-04-01T18:52:23.840Z,7.33
2019-04-01T18:54:50.525Z,6.80
2019-04-01T18:57:17.161Z,7.90
2019-04-01T18:59:43.891Z,7.23
2019-04-01T19:02:10.470Z,6.37
2019-04-01T19:04:37.047Z,6.80
2019-04-01T19:07:04.477Z,6.20
2019-04-01T19:09:32.613Z,6.63
2019-04-01T19:12:04.078Z,5.60
2019-04-01T19:14:27.907Z,6.17
2019-04-01T19:16:54.577Z,6.73
2019-04-01T19:19:21.159Z,6.37
2019-04-01T19:21:49.618Z,6.30
2019-04-01T19:24:16.316Z,5.97
2019-04-01T19:26:43.329Z,7.20
2019-04-01T19:29:09.957Z,6.50
2019-04-01T19:31:36.791Z,5.87
2019-04-01T19:34:03.495Z,6.83
2019-04-01T19:36:30.201Z,6.70
2019-04-01T19:38:57.485Z,6.17
2019-04-01T19:41:24.195Z,6.57
2019-04-01T19:43:51.279Z,5.97
2019-04-01T19:46:18.043Z,5.90
2019-04-01T19:48:44.671Z,7.27
2019-04-01T19:51:11.300Z,6.40
2019-04-01T19:53:38.090Z,7.00
2019-04-01T19:56:04.730Z,6.33
2019-04-01T19:58:32.029Z,6.80
2019-04-01T20:01:00.032Z,6.80
2019-04-01T20:03:27.139Z,6.63
2019-04-01T20:05:54.578Z,7.17
2019-04-01T20:08:21.575Z,6.97
2019-04-01T20:10:48.164Z,6.30
2019-04-01T20:13:14.873Z,6.73
2019-04-01T20:15:41.777Z,7.07
2019-04-01T20:18:09.533Z,7.30
2019-04-01T20:20:36.405Z,6.63
2019-04-01T20:23:03.114Z,7.00
2019-04-01T20:25:29.832Z,7.23
2019-04-01T20:27:56.426Z,6.93
2019-04-01T20:30:22.997Z,7.23
2019-04-01T20:32:49.588Z,7.43
2019-04-01T20:35:23.347Z,6.70
2019-04-01T20:37:44.844Z,7.53
2019-04-01T20:40:11.492Z,8.00
2019-04-01T20:42:38.060Z,7.57
2019-04-01T20:45:04.685Z,7.10
2019-04-01T20:47:31.289Z,7.27
2019-04-01T20:49:58.399Z,7.03
2019-04-01T20:52:25.700Z,6.70
2019-04-01T20:54:52.271Z,6.37
2019-04-01T20:57:21.689Z,7.20
2019-04-01T20:59:47.270Z,6.90
2019-04-01T21:02:13.856Z,7.33
2019-04-01T21:04:40.446Z,7.00
2019-04-01T21:07:09.780Z,7.50
2019-04-01T21:09:35.936Z,7.60
2019-04-01T21:12:03.120Z,6.73
2019-04-01T21:14:29.791Z,6.73
2019-04-01T21:16:56.392Z,7.23
2019-04-01T21:19:23.094Z,7.57
2019-04-01T21:21:49.706Z,7.00
2019-04-01T21:24:16.297Z,7.37
2019-04-01T21:26:43.060Z,7.03
2019-04-01T21:29:09.607Z,6.97
2019-04-01T21:31:36.572Z,6.50
2019-04-01T21:34:03.515Z,7.00
2019-04-01T21:36:30.839Z,7.70
2019-04-01T21:38:57.783Z,7.37
2019-04-01T21:41:25.307Z,6.77
2019-04-01T21:43:52.338Z,7.10
2019-04-01T21:46:19.033Z,7.33
2019-04-01T21:48:46.268Z,6.30
2019-04-01T21:51:12.896Z,6.13
2019-04-01T21:53:39.841Z,5.90
2019-04-01T21:56:06.422Z,6.70
2019-04-01T21:58:33.002Z,7.20
2019-04-01T22:01:00.096Z,6.63
2019-04-01T22:03:26.707Z,6.63
2019-04-01T22:05:53.283Z,6.97
2019-04-01T22:08:19.980Z,7.53
2019-04-01T22:10:46.586Z,5.67
2019-04-01T22:13:13.216Z,7.47
2019-04-01T22:15:39.805Z,6.53
2019-04-01T22:18:06.378Z,6.13
2019-04-01T22:20:32.952Z,6.37
2019-04-01T22:22:59.556Z,5.87
2019-04-01T22:25:26.126Z,6.30
2019-04-01T22:27:53.377Z,6.10
2019-04-01T22:30:20.171Z,6.57
2019-04-01T22:32:47.153Z,7.47
2019-04-01T22:35:13.745Z,6.93
2019-04-01T22:37:40.274Z,7.13
2019-04-01T22:40:06.899Z,7.27
2019-04-01T22:42:33.564Z,5.97
2019-04-01T22:45:00.502Z,6.43
2019-04-01T22:47:27.092Z,7.20
2019-04-01T22:49:53.634Z,7.63
2019-04-01T22:52:20.266Z,6.87
2019-04-01T22:54:47.129Z,6.87
2019-04-01T22:57:13.710Z,6.63
2019-04-01T22:59:40.320Z,6.77
2019-04-01T23:02:07.017Z,7.37
2019-04-01T23:04:36.777Z,6.80
2019-04-01T23:07:03.335Z,7.00
2019-04-01T23:09:30.723Z,6.53
2019-04-01T23:11:57.346Z,7.17
2019-04-01T23:14:24.275Z,7.07
2019-04-01T23:16:51.333Z,7.10
2019-04-01T23:19:17.946Z,7.53
2019-04-01T23:21:44.568Z,6.67
2019-04-01T23:24:11.387Z,6.70
2019-04-01T23:26:38.097Z,7.60
2019-04-01T23:29:04.658Z,6.83
2019-04-01T23:31:31.288Z,6.73
2019-04-01T23:33:57.836Z,7.33
2019-04-01T23:36:24.802Z,7.57
2019-04-01T23:38:51.715Z,7.90
2019-04-01T23:41:18.399Z,7.30
2019-04-01T23:43:45.040Z,7.33
2019-04-01T23:46:11.675Z,7.10
2019-04-01T23:48:38.266Z,6.40
2019-04-01T23:51:04.927Z,7.33
2019-04-01T23:53:31.829Z,8.23
2019-04-01T23:55:58.669Z,7.63
2019-04-01T23:58:25.996Z,7.27
